Time;durP1;ratioP1;P1;durP2;ratioP2;P2;SDS_P1;SDS_P2;PMS_P1;PMS_P2;Temp;Humidity;BMP_temperature;BMP_pressure;BME280_temperature;BME280_humidity;BME280_pressure;Samples;Min_cycle;Max_cycle;Signal;HPM_P1;HPM_P2
2022/11/30 00:01:28;;;;;;;27.57;16.83;;;;;;;5.35;100.00;95773.38;5004673;28;20249;-80
2022/11/30 00:03:55;;;;;;;30.33;17.40;;;;;;;5.38;100.00;95782.63;5015617;28;20207;-80
2022/11/30 00:06:23;;;;;;;25.93;15.43;;;;;;;5.42;100.00;95772.94;4998300;28;20183;-81
2022/11/30 00:08:52;;;;;;;26.00;14.87;;;;;;;5.45;100.00;95776.13;5008588;28;20213;-80
2022/11/30 00:11:19;;;;;;;26.10;15.47;;;;;;;5.31;100.00;95769.41;5012210;28;20208;-80
2022/11/30 00:13:45;;;;;;;27.67;16.37;;;;;;;5.39;100.00;95764.53;5011550;28;20231;-80
2022/11/30 00:16:10;;;;;;;26.53;16.67;;;;;;;5.30;100.00;95765.19;5015574;28;20190;-80
2022/11/30 00:18:36;;;;;;;24.70;14.43;;;;;;;5.29;100.00;95767.84;5014840;28;20190;-80
2022/11/30 00:21:03;;;;;;;23.83;15.00;;;;;;;5.41;100.00;95766.97;5014184;28;20252;-80
2022/11/30 00:23:33;;;;;;;26.67;16.57;;;;;;;5.21;100.00;95762.41;5012282;28;20195;-80
2022/11/30 00:26:02;;;;;;;27.87;17.20;;;;;;;5.31;100.00;95758.28;5012983;28;20247;-80
2022/11/30 00:28:28;;;;;;;25.47;16.63;;;;;;;5.28;100.00;95764.44;5012841;28;20195;-80
2022/11/30 00:31:04;;;;;;;26.80;15.47;;;;;;;5.35;100.00;95767.41;5014631;28;20490;-80
2022/11/30 00:33:34;;;;;;;32.80;16.63;;;;;;;5.28;100.00;95766.22;5006055;28;20210;-80
2022/11/30 00:36:02;;;;;;;28.47;16.27;;;;;;;5.38;100.00;95760.28;5006503;28;20214;-80
2022/11/30 00:38:27;;;;;;;30.80;17.13;;;;;;;5.14;100.00;95761.25;5009645;28;20198;-80
2022/11/30 00:40:52;;;;;;;28.47;17.07;;;;;;;5.29;100.00;95760.13;5015348;28;20195;-80
2022/11/30 00:43:18;;;;;;;31.00;18.03;;;;;;;5.30;100.00;95762.63;5010205;28;20218;-80
2022/11/30 00:45:43;;;;;;;37.27;20.50;;;;;;;5.23;100.00;95763.16;5029385;28;20214;-80
2022/11/30 00:48:08;;;;;;;37.47;18.83;;;;;;;5.23;100.00;95760.59;5015383;28;20183;-80
2022/11/30 00:50:34;;;;;;;36.50;19.30;;;;;;;5.13;100.00;95770.72;4994270;28;20191;-80
2022/11/30 00:52:59;;;;;;;45.90;20.03;;;;;;;5.15;100.00;95763.69;4997109;28;20270;-80
2022/11/30 00:55:25;;;;;;;64.50;21.33;;;;;;;5.05;100.00;95762.72;5013211;28;20190;-79
2022/11/30 00:57:50;;;;;;;38.23;19.10;;;;;;;5.21;100.00;95762.41;5008122;28;20184;-80
2022/11/30 01:00:15;;;;;;;94.40;22.20;;;;;;;5.16;100.00;95767.09;5013395;28;20666;-80
2022/11/30 01:02:41;;;;;;;54.97;20.13;;;;;;;5.08;100.00;95770.22;5001198;28;20191;-80
2022/11/30 01:05:06;;;;;;;37.00;18.17;;;;;;;5.23;100.00;95771.69;5013396;28;20226;-80
2022/11/30 01:07:32;;;;;;;34.40;17.63;;;;;;;5.34;100.00;95771.75;5013218;28;20596;-80
2022/11/30 01:09:57;;;;;;;46.77;19.83;;;;;;;5.28;100.00;95764.44;4993175;28;20187;-80
2022/11/30 01:12:22;;;;;;;66.40;22.37;;;;;;;5.29;100.00;95763.50;4996904;28;20190;-80
2022/11/30 01:14:47;;;;;;;43.40;19.40;;;;;;;5.44;100.00;95773.66;5015726;28;20208;-80
2022/11/30 01:17:13;;;;;;;143.50;26.23;;;;;;;5.09;100.00;95764.13;4997526;28;20237;-80
2022/11/30 01:19:38;;;;;;;248.00;27.67;;;;;;;5.24;100.00;95768.19;5012986;28;20577;-80
2022/11/30 01:22:03;;;;;;;77.63;20.70;;;;;;;5.15;100.00;95774.00;5014973;28;20197;-80
2022/11/30 01:24:29;;;;;;;135.30;24.03;;;;;;;5.22;100.00;95764.91;4999021;28;20211;-80
2022/11/30 01:26:54;;;;;;;265.27;29.90;;;;;;;5.21;100.00;95772.72;4996249;28;20187;-80
2022/11/30 01:29:19;;;;;;;245.63;28.97;;;;;;;5.25;100.00;95774.97;4996302;28;20191;-80
2022/11/30 01:31:44;;;;;;;496.73;38.43;;;;;;;5.14;100.00;95769.78;4994378;28;20721;-81
2022/11/30 01:34:10;;;;;;;192.13;25.60;;;;;;;5.28;100.00;95768.78;5009681;28;20206;-80
2022/11/30 01:36:37;;;;;;;141.63;22.67;;;;;;;5.39;100.00;95769.69;5008302;28;20218;-80
2022/11/30 01:39:07;;;;;;;323.83;31.77;;;;;;;5.51;100.00;95764.56;4997081;28;20191;-80
2022/11/30 01:41:32;;;;;;;80.73;21.97;;;;;;;5.50;100.00;95771.47;5016350;28;20179;-80
2022/11/30 01:44:04;;;;;;;92.97;24.83;;;;;;;5.33;100.00;95774.44;5013814;28;20258;-80
2022/11/30 01:46:35;;;;;;;193.50;25.37;;;;;;;5.28;100.00;95777.31;5031003;28;20672;-80
2022/11/30 01:49:13;;;;;;;378.30;33.10;;;;;;;5.24;100.00;95768.19;5011290;28;20194;-80
2022/11/30 01:51:49;;;;;;;321.87;31.43;;;;;;;5.40;100.00;95762.78;5011535;28;20190;-80
2022/11/30 01:54:16;;;;;;;765.63;55.80;;;;;;;5.05;100.00;95778.16;5012565;28;20214;-79
2022/11/30 01:56:50;;;;;;;157.50;25.40;;;;;;;5.44;100.00;95782.19;4995191;28;20195;-80
2022/11/30 01:59:17;;;;;;;479.17;43.07;;;;;;;5.23;100.00;95784.56;5004559;28;20183;-80
2022/11/30 02:01:43;;;;;;;176.33;25.60;;;;;;;5.45;100.00;95781.28;5015535;28;20183;-80
2022/11/30 02:04:17;;;;;;;349.17;32.80;;;;;;;5.32;100.00;95785.66;5013806;28;20250;-80
2022/11/30 02:06:43;;;;;;;233.17;26.53;;;;;;;5.43;100.00;95783.13;5008997;28;20195;-80
2022/11/30 02:09:09;;;;;;;249.57;29.60;;;;;;;5.37;100.00;95786.16;5010835;28;20191;-80
2022/11/30 02:11:34;;;;;;;524.53;43.97;;;;;;;5.36;100.00;95787.09;4997374;28;20190;-80
2022/11/30 02:14:05;;;;;;;547.87;41.47;;;;;;;5.36;100.00;95779.34;5012771;28;20232;-80
2022/11/30 02:17:10;;;;;;;572.93;46.93;;;;;;;5.38;100.00;95778.31;4997768;28;20206;-80
2022/11/30 02:19:57;;;;;;;423.67;35.70;;;;;;;5.22;100.00;95780.34;5012148;28;20179;-80
2022/11/30 02:22:37;;;;;;;493.03;36.87;;;;;;;5.07;100.00;95789.16;5015230;28;20187;-80
2022/11/30 02:25:26;;;;;;;196.50;24.00;;;;;;;5.24;100.00;95781.06;5007083;28;20632;-79
2022/11/30 02:28:34;;;;;;;615.00;46.47;;;;;;;5.11;100.00;95793.16;5001772;28;20195;-80
2022/11/30 02:31:01;;;;;;;596.47;56.20;;;;;;;5.12;100.00;95792.22;5010831;28;20201;-80
2022/11/30 02:33:28;;;;;;;279.80;28.00;;;;;;;5.14;100.00;95787.81;5011220;28;20210;-80
2022/11/30 02:35:54;;;;;;;167.50;24.07;;;;;;;5.22;100.00;95782.13;5012503;28;20198;-80
2022/11/30 02:38:21;;;;;;;615.63;48.53;;;;;;;5.21;100.00;95778.72;4997893;28;20540;-80
2022/11/30 02:40:46;;;;;;;548.60;40.07;;;;;;;5.14;100.00;95790.38;5007488;28;20209;-80
2022/11/30 02:43:12;;;;;;;212.80;27.13;;;;;;;5.13;100.00;95788.75;5013094;28;20322;-80
2022/11/30 02:45:58;;;;;;;583.77;42.63;;;;;;;4.95;100.00;95785.72;5013625;28;20588;-80
2022/11/30 02:48:28;;;;;;;371.80;32.23;;;;;;;4.99;100.00;95784.53;4992620;28;20660;-80
2022/11/30 02:50:58;;;;;;;398.27;36.13;;;;;;;5.13;100.00;95778.44;5012616;28;20187;-80
2022/11/30 02:53:23;;;;;;;292.63;28.07;;;;;;;5.21;100.00;95778.72;5012690;28;20264;-80
2022/11/30 02:55:48;;;;;;;318.53;24.67;;;;;;;5.27;100.00;95778.25;4996416;28;20183;-80
2022/11/30 02:58:14;;;;;;;118.37;16.63;;;;;;;5.24;100.00;95783.63;5013028;28;20190;-80
2022/11/30 03:00:40;;;;;;;152.00;20.27;;;;;;;5.27;100.00;95785.16;4996679;28;20205;-80
2022/11/30 03:03:05;;;;;;;196.60;22.20;;;;;;;5.14;100.00;95782.66;4996527;28;20264;-79
2022/11/30 03:05:30;;;;;;;41.43;14.23;;;;;;;5.26;100.00;95783.53;5011794;28;20645;-80
2022/11/30 03:07:55;;;;;;;30.30;12.47;;;;;;;5.16;100.00;95780.78;5013102;28;20245;-80
2022/11/30 03:10:21;;;;;;;29.17;14.40;;;;;;;5.22;100.00;95787.25;4996692;28;20202;-80
2022/11/30 03:12:46;;;;;;;25.47;12.23;;;;;;;5.05;100.00;95785.88;4996806;28;20218;-80
2022/11/30 03:15:11;;;;;;;19.53;11.27;;;;;;;5.14;100.00;95784.41;5011817;28;20265;-80
2022/11/30 03:17:37;;;;;;;21.53;11.47;;;;;;;5.10;100.00;95794.09;5013216;28;20999;-80
2022/11/30 03:20:03;;;;;;;19.70;11.03;;;;;;;5.08;100.00;95791.63;5013122;28;20187;-81
2022/11/30 03:22:28;;;;;;;18.67;11.00;;;;;;;5.12;100.00;95787.06;5004989;28;20191;-80
2022/11/30 03:24:53;;;;;;;34.70;12.80;;;;;;;5.14;100.00;95789.56;4996145;28;20690;-80
2022/11/30 03:27:19;;;;;;;19.67;10.63;;;;;;;5.19;100.00;95790.03;4996362;28;20183;-81
2022/11/30 03:29:44;;;;;;;16.17;10.07;;;;;;;5.06;100.00;95782.38;4994559;28;20192;-81
2022/11/30 03:32:09;;;;;;;16.90;9.73;;;;;;;4.97;100.00;95793.31;5011972;28;20198;-80
2022/11/30 03:34:35;;;;;;;19.50;11.20;;;;;;;5.18;100.00;95788.41;5012541;28;20210;-80
2022/11/30 03:37:00;;;;;;;17.60;10.00;;;;;;;5.09;100.00;95784.72;4996100;28;20218;-81
2022/11/30 03:39:25;;;;;;;18.87;10.07;;;;;;;5.21;100.00;95783.88;5012691;28;20198;-80
2022/11/30 03:41:51;;;;;;;30.30;10.93;;;;;;;5.06;100.00;95787.53;5011452;28;20659;-81
2022/11/30 03:44:16;;;;;;;24.27;10.57;;;;;;;4.99;100.00;95783.72;5015398;28;20293;-81
2022/11/30 03:46:41;;;;;;;26.17;11.80;;;;;;;4.91;100.00;95789.41;5011477;28;20187;-81
2022/11/30 03:49:07;;;;;;;24.37;10.83;;;;;;;5.15;100.00;95788.63;5010567;28;20198;-80
2022/11/30 03:51:32;;;;;;;24.57;11.03;;;;;;;5.09;100.00;95793.25;5008601;28;20194;-80
2022/11/30 03:53:57;;;;;;;46.33;12.33;;;;;;;4.95;100.00;95793.44;5012249;28;20268;-80
2022/11/30 03:56:23;;;;;;;24.60;12.47;;;;;;;5.04;100.00;95797.09;5011491;28;20182;-80
2022/11/30 03:58:48;;;;;;;19.60;11.20;;;;;;;5.16;100.00;95787.69;5011224;28;20190;-80
2022/11/30 04:01:16;;;;;;;26.60;12.47;;;;;;;5.07;100.00;95795.13;5012429;28;20273;-80
2022/11/30 04:03:42;;;;;;;23.30;12.87;;;;;;;5.18;100.00;95788.41;4995213;28;20209;-80
2022/11/30 04:06:09;;;;;;;24.00;11.90;;;;;;;5.08;100.00;95794.19;5012167;28;20217;-80
2022/11/30 04:08:34;;;;;;;25.30;13.13;;;;;;;5.02;100.00;95794.63;4994392;28;20257;-80
2022/11/30 04:11:01;;;;;;;50.57;14.93;;;;;;;5.02;100.00;95791.22;5011280;28;20658;-80
2022/11/30 04:13:27;;;;;;;47.63;14.10;;;;;;;5.09;100.00;95798.41;4992754;28;20198;-80
2022/11/30 04:15:53;;;;;;;58.73;15.70;;;;;;;5.12;100.00;95797.38;5008689;28;20186;-80
2022/11/30 04:18:19;;;;;;;72.40;16.07;;;;;;;5.18;100.00;95801.28;4995632;28;20198;-81
2022/11/30 04:20:45;;;;;;;90.03;17.43;;;;;;;5.10;100.00;95799.22;5005660;28;20190;-81
2022/11/30 04:23:11;;;;;;;234.50;22.40;;;;;;;5.05;100.00;95801.31;5009793;28;20203;-80
2022/11/30 04:25:37;;;;;;;129.17;20.40;;;;;;;5.11;100.00;95801.69;5012937;28;20213;-81
2022/11/30 04:28:03;;;;;;;127.90;19.70;;;;;;;5.10;100.00;95801.81;5011951;28;20541;-80
2022/11/30 04:30:28;;;;;;;126.50;17.63;;;;;;;5.08;100.00;95801.09;5012602;28;20240;-80
2022/11/30 04:32:53;;;;;;;124.77;19.97;;;;;;;5.02;100.00;95797.19;5009059;28;20214;-80
2022/11/30 04:35:19;;;;;;;230.97;23.63;;;;;;;5.06;100.00;95792.66;4994931;28;20178;-80
2022/11/30 04:37:44;;;;;;;231.10;23.70;;;;;;;5.07;100.00;95796.88;4997567;28;20193;-81
2022/11/30 04:40:10;;;;;;;178.30;19.50;;;;;;;5.10;100.00;95796.66;4992621;28;20544;-80
2022/11/30 04:42:35;;;;;;;208.03;21.80;;;;;;;5.13;100.00;95793.88;5014045;28;20868;-80
2022/11/30 04:45:00;;;;;;;134.43;20.37;;;;;;;5.13;100.00;95791.31;4994819;28;20210;-79
2022/11/30 04:47:25;;;;;;;209.17;24.63;;;;;;;5.11;100.00;95795.72;5005139;28;20195;-80
2022/11/30 04:49:51;;;;;;;239.23;23.97;;;;;;;5.00;100.00;95791.34;4999013;28;20189;-80
2022/11/30 04:52:16;;;;;;;395.37;33.67;;;;;;;4.92;100.00;95800.53;5025104;28;20187;-80
2022/11/30 04:54:41;;;;;;;317.97;28.17;;;;;;;4.94;100.00;95798.66;5014894;28;20230;-81
2022/11/30 04:57:07;;;;;;;307.17;28.37;;;;;;;4.90;100.00;95797.25;5030099;28;20175;-80
2022/11/30 04:59:32;;;;;;;199.70;25.27;;;;;;;4.84;100.00;95794.16;5020041;28;20202;-80
2022/11/30 05:01:57;;;;;;;243.80;28.20;;;;;;;4.77;100.00;95802.41;5020172;28;20179;-80
2022/11/30 05:04:23;;;;;;;88.43;23.53;;;;;;;4.82;100.00;95795.19;5005022;28;20706;-81
2022/11/30 05:06:48;;;;;;;37.90;21.77;;;;;;;4.81;100.00;95799.53;5000960;28;20309;-81
2022/11/30 05:09:13;;;;;;;33.97;21.30;;;;;;;4.88;100.00;95799.09;5010883;28;20840;-80
2022/11/30 05:11:38;;;;;;;34.83;21.27;;;;;;;4.91;100.00;95798.88;5011720;28;20190;-81
2022/11/30 05:14:04;;;;;;;38.47;22.63;;;;;;;4.75;100.00;95804.25;5012600;28;20207;-81
2022/11/30 05:16:29;;;;;;;35.17;21.40;;;;;;;4.87;100.00;95803.44;5016969;28;20182;-81
2022/11/30 05:18:55;;;;;;;32.90;19.47;;;;;;;4.99;100.00;95806.88;5018563;28;20186;-81
2022/11/30 05:21:20;;;;;;;31.73;19.17;;;;;;;4.94;100.00;95804.63;5020811;28;20228;-80
2022/11/30 05:23:47;;;;;;;33.33;21.63;;;;;;;4.92;100.00;95806.47;5002114;28;20214;-81
2022/11/30 05:26:13;;;;;;;26.03;16.47;;;;;;;4.90;100.00;95803.19;5017972;28;20215;-78
2022/11/30 05:28:38;;;;;;;35.03;19.33;;;;;;;4.97;100.00;95804.44;5013515;28;20195;-77
2022/11/30 05:31:04;;;;;;;27.67;17.30;;;;;;;4.96;100.00;95813.09;5013795;28;20187;-79
2022/11/30 05:33:30;;;;;;;29.60;19.10;;;;;;;4.84;100.00;95819.06;5010453;28;20219;-80
2022/11/30 05:35:55;;;;;;;28.93;17.47;;;;;;;4.95;100.00;95819.16;5012509;28;20175;-80
2022/11/30 05:38:21;;;;;;;28.67;16.73;;;;;;;4.99;100.00;95817.19;4996048;28;20222;-80
2022/11/30 05:40:46;;;;;;;29.43;16.43;;;;;;;4.95;100.00;95819.16;5013391;28;20191;-79
2022/11/30 05:43:11;;;;;;;28.17;16.20;;;;;;;4.99;100.00;95822.34;4998067;28;20214;-80
2022/11/30 05:45:37;;;;;;;27.40;16.93;;;;;;;4.98;100.00;95823.25;4994572;28;20253;-80
2022/11/30 05:48:02;;;;;;;35.97;23.50;;;;;;;4.88;100.00;95825.66;5014518;28;20195;-80
2022/11/30 05:50:27;;;;;;;28.10;17.30;;;;;;;4.93;100.00;95827.91;5012331;28;20233;-80
2022/11/30 05:52:59;;;;;;;38.37;18.17;;;;;;;4.96;100.00;95828.53;5012853;28;20284;-80
2022/11/30 05:55:24;;;;;;;24.33;16.80;;;;;;;5.01;100.00;95823.88;5010224;28;20178;-80
2022/11/30 05:57:50;;;;;;;25.57;16.60;;;;;;;4.92;100.00;95816.78;4998746;28;20191;-80
2022/11/30 06:00:15;;;;;;;23.57;15.50;;;;;;;5.03;100.00;95818.59;5014916;28;20194;-80
2022/11/30 06:02:40;;;;;;;83.03;20.77;;;;;;;4.96;100.00;95823.38;5009782;28;20186;-81
2022/11/30 06:05:06;;;;;;;52.80;18.40;;;;;;;4.97;100.00;95819.03;5011680;28;20692;-79
2022/11/30 06:07:32;;;;;;;58.10;19.47;;;;;;;4.92;100.00;95813.38;4997468;28;20199;-80
2022/11/30 06:09:57;;;;;;;105.43;20.53;;;;;;;4.90;100.00;95817.81;5028673;28;20198;-80
2022/11/30 06:12:22;;;;;;;51.50;19.50;;;;;;;4.87;100.00;95815.47;4997654;28;20201;-79
2022/11/30 06:14:49;;;;;;;88.60;23.67;;;;;;;4.89;100.00;95813.59;5011047;28;20215;-80
2022/11/30 06:17:15;;;;;;;226.07;29.97;;;;;;;4.77;100.00;95816.09;5014207;28;20241;-79
2022/11/30 06:19:40;;;;;;;32.57;18.47;;;;;;;4.91;100.00;95809.16;5003589;28;20198;-80
2022/11/30 06:22:05;;;;;;;59.73;23.37;;;;;;;4.90;100.00;95802.38;5015115;28;20191;-79
2022/11/30 06:24:30;;;;;;;54.93;21.60;;;;;;;4.99;100.00;95814.59;5014757;28;20242;-79
2022/11/30 06:26:56;;;;;;;96.23;24.30;;;;;;;4.88;100.00;95804.25;5013714;28;20222;-80
2022/11/30 06:29:21;;;;;;;117.20;22.90;;;;;;;4.90;100.00;95808.34;5007006;28;20195;-79
2022/11/30 06:31:46;;;;;;;137.97;24.30;;;;;;;4.82;100.00;95810.63;5015215;28;20257;-80
2022/11/30 06:34:12;;;;;;;91.63;23.53;;;;;;;4.77;100.00;95813.53;4998991;28;20210;-80
2022/11/30 06:36:37;;;;;;;25.37;16.87;;;;;;;4.81;100.00;95814.97;5002162;28;20202;-79
2022/11/30 06:39:03;;;;;;;23.63;15.27;;;;;;;4.88;100.00;95819.69;5015135;28;20234;-79
2022/11/30 06:41:28;;;;;;;21.40;14.73;;;;;;;4.80;100.00;95809.91;5012263;28;20222;-80
2022/11/30 06:43:53;;;;;;;26.17;14.07;;;;;;;4.81;100.00;95807.25;5015151;28;20211;-79
2022/11/30 06:46:20;;;;;;;25.83;16.47;;;;;;;4.81;100.00;95809.00;5014385;28;20575;-79
2022/11/30 06:48:48;;;;;;;21.47;14.70;;;;;;;4.90;100.00;95815.25;5015797;28;20195;-79
2022/11/30 06:51:13;;;;;;;27.47;14.60;;;;;;;4.85;100.00;95815.56;5012032;28;20178;-79
2022/11/30 06:53:41;;;;;;;22.97;14.10;;;;;;;4.98;100.00;95818.13;5014468;28;20576;-80
2022/11/30 06:56:08;;;;;;;26.60;14.27;;;;;;;4.98;100.00;95820.69;5014859;28;20179;-80
2022/11/30 06:58:33;;;;;;;33.27;14.90;;;;;;;4.89;100.00;95821.34;5008013;28;20568;-79
2022/11/30 07:00:59;;;;;;;29.07;18.67;;;;;;;4.93;100.00;95825.31;4999990;28;20187;-80
2022/11/30 07:03:24;;;;;;;21.77;13.97;;;;;;;5.00;100.00;95816.25;5014427;28;20234;-79
2022/11/30 07:05:49;;;;;;;24.07;15.00;;;;;;;4.94;100.00;95822.63;5013426;28;20203;-79
2022/11/30 07:08:16;;;;;;;18.87;13.60;;;;;;;4.91;100.00;95828.00;4996922;28;20198;-79
2022/11/30 07:10:42;;;;;;;18.63;13.03;;;;;;;4.95;100.00;95823.50;4999787;28;20592;-79
2022/11/30 07:13:16;;;;;;;19.23;12.30;;;;;;;4.88;100.00;95825.66;5013887;28;20694;-80
2022/11/30 07:15:42;;;;;;;15.43;12.03;;;;;;;4.92;100.00;95821.94;4995860;28;20193;-80
2022/11/30 07:18:08;;;;;;;16.23;11.90;;;;;;;4.92;100.00;95827.06;4997985;28;20203;-80
2022/11/30 07:20:33;;;;;;;17.83;12.80;;;;;;;4.88;100.00;95825.66;5013909;28;20280;-80
2022/11/30 07:26:05;;;;;;;15.00;11.27;;;;;;;4.92;100.00;95818.53;4997705;28;20217;-79
2022/11/30 07:26:07;;;;;;;15.93;11.30;;;;;;;4.98;100.00;95825.84;5012490;28;20199;-80
2022/11/30 07:28:44;;;;;;;16.17;12.37;;;;;;;5.07;100.00;95831.16;5011125;28;20182;-79
2022/11/30 07:31:14;;;;;;;19.23;13.40;;;;;;;5.00;100.00;95835.09;4996949;28;20186;-80
2022/11/30 07:33:40;;;;;;;20.27;12.60;;;;;;;4.98;100.00;95829.22;4997281;28;20288;-79
2022/11/30 07:36:06;;;;;;;16.80;12.37;;;;;;;5.08;100.00;95831.97;5001888;28;20207;-80
2022/11/30 07:38:32;;;;;;;17.43;11.83;;;;;;;5.12;100.00;95833.41;4997199;28;20563;-79
2022/11/30 07:40:57;;;;;;;18.30;12.63;;;;;;;5.05;100.00;95834.78;5000720;28;20205;-80
2022/11/30 07:43:22;;;;;;;29.80;12.80;;;;;;;5.13;100.00;95835.06;4996934;28;20388;-80
2022/11/30 07:45:52;;;;;;;24.00;13.20;;;;;;;5.22;100.00;95834.44;4995843;28;20219;-79
2022/11/30 07:48:18;;;;;;;17.43;12.40;;;;;;;5.27;100.00;95837.47;5013090;28;20187;-79
2022/11/30 07:50:43;;;;;;;23.37;12.77;;;;;;;5.23;100.00;95836.06;4996966;28;20298;-80
2022/11/30 07:53:08;;;;;;;28.03;13.23;;;;;;;5.25;100.00;95841.94;4996630;28;20207;-80
2022/11/30 07:55:34;;;;;;;17.80;12.77;;;;;;;5.29;100.00;95840.75;5013473;28;20186;-79
2022/11/30 07:57:59;;;;;;;32.60;13.17;;;;;;;5.31;100.00;95843.25;5014759;28;20194;-80
2022/11/30 08:00:24;;;;;;;18.80;13.13;;;;;;;5.34;100.00;95846.44;5012916;28;20539;-79
2022/11/30 08:02:50;;;;;;;17.70;12.27;;;;;;;5.35;100.00;95854.97;5012427;28;20206;-80
2022/11/30 08:05:15;;;;;;;125.17;19.40;;;;;;;5.27;100.00;95849.53;5010208;28;20287;-79
2022/11/30 08:07:42;;;;;;;55.00;15.10;;;;;;;5.26;100.00;95853.03;4996261;28;20211;-79
2022/11/30 08:10:07;;;;;;;25.97;13.30;;;;;;;5.34;100.00;95851.56;5012750;28;20205;-79
2022/11/30 08:12:33;;;;;;;177.07;20.80;;;;;;;5.21;100.00;95850.81;4996434;28;20183;-79
2022/11/30 08:14:58;;;;;;;221.47;23.17;;;;;;;4.95;100.00;95854.38;5013520;28;20183;-80
2022/11/30 08:17:23;;;;;;;208.67;22.53;;;;;;;5.14;100.00;95852.16;5014621;28;20767;-80
2022/11/30 08:19:49;;;;;;;105.47;16.50;;;;;;;5.20;100.00;95858.63;5014362;28;20230;-79
2022/11/30 08:22:14;;;;;;;235.40;26.63;;;;;;;5.09;100.00;95854.22;4997616;28;20194;-80
2022/11/30 08:24:39;;;;;;;234.17;27.67;;;;;;;5.10;100.00;95861.00;5012883;28;20211;-79
2022/11/30 08:27:04;;;;;;;313.13;36.03;;;;;;;5.22;100.00;95860.19;4995756;28;20613;-79
2022/11/30 08:29:30;;;;;;;52.53;20.37;;;;;;;5.36;100.00;95854.03;4995041;28;20195;-79
2022/11/30 08:31:55;;;;;;;394.80;37.03;;;;;;;5.24;100.00;95865.22;4996681;28;20194;-80
2022/11/30 08:34:20;;;;;;;279.00;29.70;;;;;;;5.21;100.00;95865.41;5013081;28;20829;-80
2022/11/30 08:36:46;;;;;;;54.70;16.23;;;;;;;5.38;100.00;95870.19;4994969;28;20203;-79
2022/11/30 08:39:11;;;;;;;90.63;17.37;;;;;;;5.42;100.00;95868.25;5006392;28;20198;-80
2022/11/30 08:41:38;;;;;;;28.87;15.80;;;;;;;5.40;100.00;95878.66;5012792;28;20555;-80
2022/11/30 08:44:03;;;;;;;202.67;21.73;;;;;;;5.35;100.00;95871.25;5012496;28;20218;-79
2022/11/30 08:46:29;;;;;;;195.83;20.73;;;;;;;5.36;100.00;95878.03;4995336;28;20309;-79
2022/11/30 08:48:54;;;;;;;265.33;24.93;;;;;;;5.30;100.00;95873.34;5013536;28;20554;-79
2022/11/30 08:51:20;;;;;;;41.30;15.63;;;;;;;5.39;100.00;95877.03;5018077;28;20183;-80
2022/11/30 08:53:46;;;;;;;503.87;37.83;;;;;;;5.09;100.00;95877.38;5005359;28;20261;-79
2022/11/30 08:56:17;;;;;;;232.27;23.50;;;;;;;5.22;100.00;95880.78;5009929;28;20260;-79
2022/11/30 08:58:42;;;;;;;135.27;21.40;;;;;;;5.35;100.00;95893.59;5016664;28;20190;-80
2022/11/30 09:01:12;;;;;;;393.87;34.93;;;;;;;5.21;100.00;95884.28;5017034;28;20248;-79
2022/11/30 09:03:39;;;;;;;333.83;31.00;;;;;;;5.38;100.00;95889.03;4999451;28;20207;-79
2022/11/30 09:06:05;;;;;;;98.57;18.87;;;;;;;5.34;100.00;95886.81;5015308;28;20199;-79
2022/11/30 09:08:31;;;;;;;43.10;17.00;;;;;;;5.47;100.00;95889.34;5017926;28;20194;-80
2022/11/30 09:10:56;;;;;;;37.07;18.43;;;;;;;5.55;100.00;95892.19;5000147;28;20294;-80
2022/11/30 09:13:21;;;;;;;165.33;22.53;;;;;;;5.51;100.00;95895.94;5016050;28;20215;-80
2022/11/30 09:15:53;;;;;;;262.77;31.90;;;;;;;5.37;100.00;95892.56;4999249;28;20237;-79
2022/11/30 09:18:18;;;;;;;83.80;20.63;;;;;;;5.51;100.00;95888.19;5015648;28;20176;-80
2022/11/30 09:20:44;;;;;;;35.87;16.60;;;;;;;5.61;100.00;95897.75;5015982;28;20249;-79
2022/11/30 09:23:09;;;;;;;29.00;16.83;;;;;;;5.68;100.00;95905.88;5016416;28;20218;-80
2022/11/30 09:25:34;;;;;;;57.43;20.07;;;;;;;5.69;100.00;95899.78;5014998;28;20690;-79
2022/11/30 09:27:59;;;;;;;45.37;16.90;;;;;;;5.69;100.00;95898.03;4999372;28;20197;-80
2022/11/30 09:30:25;;;;;;;29.63;16.97;;;;;;;5.64;100.00;95901.84;5016100;28;20187;-80
2022/11/30 09:32:50;;;;;;;41.73;17.23;;;;;;;5.51;100.00;95899.31;5017322;28;20624;-80
2022/11/30 09:35:15;;;;;;;33.30;18.10;;;;;;;5.62;100.00;95904.53;5014917;28;20571;-80
2022/11/30 09:37:41;;;;;;;30.07;16.40;;;;;;;5.71;100.00;95900.50;5015949;28;20195;-80
2022/11/30 09:40:07;;;;;;;27.23;14.50;;;;;;;5.76;100.00;95901.00;4999435;28;20210;-80
2022/11/30 09:42:48;;;;;;;43.20;16.80;;;;;;;5.75;100.00;95908.84;4999322;28;20191;-80
2022/11/30 09:45:23;;;;;;;31.67;17.63;;;;;;;5.77;100.00;95906.97;4998151;28;20203;-79
2022/11/30 09:48:00;;;;;;;32.23;17.57;;;;;;;5.49;100.00;95906.34;4990052;28;20187;-80
2022/11/30 09:50:28;;;;;;;28.50;15.80;;;;;;;5.69;100.00;95904.94;5014088;28;20186;-79
2022/11/30 09:52:57;;;;;;;31.23;16.80;;;;;;;5.73;100.00;95903.78;5015274;28;20576;-80
2022/11/30 09:55:29;;;;;;;29.43;17.37;;;;;;;5.67;100.00;95904.22;5006962;28;20190;-79
2022/11/30 09:57:57;;;;;;;36.30;18.53;;;;;;;5.43;100.00;95896.47;5015553;28;20810;-79
2022/11/30 10:00:23;;;;;;;37.17;19.33;;;;;;;5.60;100.00;95900.44;5012184;28;20191;-79
2022/11/30 10:02:50;;;;;;;33.33;18.30;;;;;;;5.58;100.00;95897.97;4997700;28;20550;-79
2022/11/30 10:05:19;;;;;;;36.97;18.67;;;;;;;5.68;100.00;95906.69;4998136;28;20203;-80
2022/11/30 10:08:07;;;;;;;37.80;18.83;;;;;;;5.66;100.00;95900.00;4999013;28;20559;-80
2022/11/30 10:10:39;;;;;;;40.13;19.00;;;;;;;5.70;100.00;95901.41;5016292;28;20211;-80
2022/11/30 10:13:14;;;;;;;40.70;18.17;;;;;;;5.54;100.00;95903.44;4996511;28;20207;-79
2022/11/30 10:15:49;;;;;;;39.80;20.77;;;;;;;5.65;100.00;95895.75;5015907;28;20185;-80
2022/11/30 10:18:36;;;;;;;69.37;20.57;;;;;;;5.64;100.00;95896.69;4998267;28;20186;-80
2022/11/30 10:21:42;;;;;;;39.23;17.90;;;;;;;5.68;100.00;95895.56;5015016;28;20190;-79
2022/11/30 10:24:31;;;;;;;37.17;17.53;;;;;;;5.70;100.00;95896.25;4998382;28;20227;-80
2022/11/30 10:26:57;;;;;;;37.43;17.73;;;;;;;5.59;100.00;95891.06;4994835;28;20663;-80
2022/11/30 10:29:32;;;;;;;34.83;18.97;;;;;;;5.69;100.00;95885.13;5005251;28;20191;-79
2022/11/30 10:31:58;;;;;;;34.50;18.23;;;;;;;5.58;100.00;95885.09;4997985;28;20810;-80
2022/11/30 10:34:32;;;;;;;38.27;18.20;;;;;;;5.68;100.00;95892.97;4997745;28;20294;-80
2022/11/30 10:37:03;;;;;;;39.47;20.37;;;;;;;5.69;100.00;95892.88;4997219;28;20249;-80
2022/11/30 10:39:37;;;;;;;38.23;19.37;;;;;;;5.74;100.00;95889.94;4995362;28;20188;-79
2022/11/30 10:42:26;;;;;;;37.20;19.03;;;;;;;5.73;100.00;95885.72;5014753;28;20214;-80
2022/11/30 10:44:59;;;;;;;38.03;18.60;;;;;;;5.77;100.00;95879.44;5013259;28;20207;-79
2022/11/30 10:47:27;;;;;;;40.53;18.77;;;;;;;5.81;100.00;95880.03;5014655;28;20210;-79
2022/11/30 10:49:52;;;;;;;39.20;18.67;;;;;;;5.77;100.00;95882.03;4999803;28;20246;-79
2022/11/30 10:52:21;;;;;;;35.77;18.30;;;;;;;5.87;100.00;95871.88;4999030;28;20187;-79
2022/11/30 10:54:48;;;;;;;35.60;17.80;;;;;;;5.92;100.00;95880.94;5013871;28;20199;-79
2022/11/30 10:57:14;;;;;;;35.43;20.70;;;;;;;5.83;100.00;95868.69;5014285;28;20180;-80
2022/11/30 10:59:51;;;;;;;35.43;20.30;;;;;;;5.77;100.00;95863.97;4997821;28;20186;-79
2022/11/30 11:02:37;;;;;;;36.17;20.93;;;;;;;5.88;100.00;95866.59;5019501;28;20257;-79
2022/11/30 11:05:29;;;;;;;43.50;23.17;;;;;;;6.05;100.00;95867.97;5013064;28;20211;-79
2022/11/30 11:08:01;;;;;;;32.53;18.03;;;;;;;6.08;99.30;95869.50;5014314;28;20190;-79
2022/11/30 11:10:29;;;;;;;34.07;17.67;;;;;;;6.14;99.79;95875.03;5011343;28;20180;-79
2022/11/30 11:12:57;;;;;;;32.37;19.10;;;;;;;6.21;99.59;95872.84;5015655;28;20209;-79
2022/11/30 11:15:30;;;;;;;32.63;18.83;;;;;;;6.09;99.40;95873.72;4997701;28;20787;-80
2022/11/30 11:18:18;;;;;;;32.80;19.03;;;;;;;6.12;99.07;95866.59;4998562;28;20685;-80